Time;durP1;ratioP1;P1;durP2;ratioP2;P2;SDS_P1;SDS_P2;PMS_P1;PMS_P2;Temp;Humidity;BMP_temperature;BMP_pressure;BME280_temperature;BME280_humidity;BME280_pressure;Samples;Min_cycle;Max_cycle;Signal;HPM_P1;HPM_P2
2024/02/23 00:02:20;;;;;;;1.52;0.63;;;7.20;99.90;;;;;;5006722;28;20041;-81
2024/02/23 00:04:45;;;;;;;4.07;0.95;;;7.20;99.90;;;;;;5008710;28;20075;-82
2024/02/23 00:07:11;;;;;;;1.88;0.68;;;7.20;99.90;;;;;;5011510;28;20033;-79
2024/02/23 00:09:37;;;;;;;2.35;0.85;;;7.20;99.90;;;;;;5009795;28;20176;-82
2024/02/23 00:12:03;;;;;;;2.35;0.80;;;7.30;99.90;;;;;;5009669;28;20546;-82
2024/02/23 00:14:30;;;;;;;1.13;0.50;;;7.30;99.90;;;;;;5009766;28;20029;-79
2024/02/23 00:16:57;;;;;;;2.08;0.68;;;7.30;99.90;;;;;;5010709;28;20065;-82
2024/02/23 00:19:24;;;;;;;0.82;0.45;;;7.40;99.90;;;;;;5015246;28;20034;-82
2024/02/23 00:21:50;;;;;;;1.17;0.30;;;7.40;99.90;;;;;;5013208;28;20041;-82
2024/02/23 00:24:17;;;;;;;1.33;0.35;;;7.50;99.90;;;;;;5012031;28;20639;-82
2024/02/23 00:26:43;;;;;;;1.02;0.40;;;7.50;99.90;;;;;;5014981;28;20044;-82
2024/02/23 00:29:09;;;;;;;1.35;0.52;;;7.50;99.90;;;;;;5011933;28;20037;-82
2024/02/23 00:31:37;;;;;;;0.45;0.22;;;7.60;99.90;;;;;;5013840;28;20574;-82
2024/02/23 00:34:03;;;;;;;1.20;0.40;;;7.60;99.90;;;;;;5015460;28;20045;-82
2024/02/23 00:36:29;;;;;;;2.80;0.40;;;7.50;99.90;;;;;;5014003;28;20033;-82
2024/02/23 00:38:54;;;;;;;1.48;0.32;;;7.40;99.90;;;;;;5013051;28;20156;-83
2024/02/23 00:41:20;;;;;;;0.60;0.30;;;7.40;99.90;;;;;;5013911;28;20029;-82
2024/02/23 00:43:47;;;;;;;0.45;0.20;;;7.10;99.90;;;;;;5012571;28;20042;-82
2024/02/23 00:46:14;;;;;;;1.55;0.20;;;7.10;99.90;;;;;;5011737;28;20034;-82
2024/02/23 00:48:40;;;;;;;0.52;0.10;;;7.10;99.90;;;;;;5013427;28;20625;-82
2024/02/23 00:51:06;;;;;;;0.70;0.20;;;7.10;99.90;;;;;;5012050;28;20063;-82
2024/02/23 00:53:32;;;;;;;0.20;0.10;;;7.30;99.90;;;;;;5012454;28;20522;-82
2024/02/23 00:55:58;;;;;;;2.53;0.50;;;7.20;99.90;;;;;;5013334;28;20045;-82
2024/02/23 00:58:24;;;;;;;0.32;0.10;;;7.30;99.90;;;;;;5013275;28;20042;-82
2024/02/23 01:00:50;;;;;;;0.40;0.20;;;7.30;99.90;;;;;;5013088;28;20060;-82
2024/02/23 01:03:15;;;;;;;0.65;0.30;;;7.20;99.90;;;;;;5014394;28;20061;-82
2024/02/23 01:05:42;;;;;;;0.65;0.25;;;7.10;99.90;;;;;;5012929;28;20037;-82
2024/02/23 01:08:08;;;;;;;0.60;0.20;;;7.10;99.90;;;;;;5011834;28;20112;-82
2024/02/23 01:10:34;;;;;;;0.50;0.10;;;7.10;99.90;;;;;;5014542;28;20061;-82
2024/02/23 01:13:00;;;;;;;0.10;0.10;;;7.00;99.90;;;;;;5013112;28;20155;-82
2024/02/23 01:15:25;;;;;;;0.10;0.05;;;6.90;99.90;;;;;;5012439;28;20041;-82
2024/02/23 01:17:51;;;;;;;1.77;0.55;;;6.90;99.90;;;;;;5012505;28;20392;-81
2024/02/23 01:20:17;;;;;;;0.77;0.20;;;7.00;99.90;;;;;;5013479;28;20128;-81
2024/02/23 01:22:43;;;;;;;0.68;0.20;;;7.00;99.90;;;;;;5014652;28;21097;-81
2024/02/23 01:25:09;;;;;;;0.43;0.22;;;7.10;99.90;;;;;;5014040;28;20175;-81
2024/02/23 01:27:35;;;;;;;0.10;0.05;;;7.10;99.90;;;;;;5012761;28;20042;-80
2024/02/23 01:30:00;;;;;;;0.30;0.20;;;6.90;99.90;;;;;;5013013;28;20133;-81
2024/02/23 01:32:26;;;;;;;0.43;0.20;;;7.00;99.90;;;;;;5012990;28;20399;-80
2024/02/23 01:34:52;;;;;;;0.70;0.30;;;7.00;99.90;;;;;;5012642;28;20037;-82
2024/02/23 01:37:18;;;;;;;0.15;0.10;;;6.90;99.90;;;;;;5018404;28;20048;-81
2024/02/23 01:39:43;;;;;;;0.10;0.00;;;7.00;99.90;;;;;;5017842;28;20383;-82
2024/02/23 01:42:09;;;;;;;0.30;0.10;;;7.00;99.90;;;;;;5016573;28;20038;-82
2024/02/23 01:44:35;;;;;;;0.38;0.17;;;7.00;99.90;;;;;;5016857;28;20501;-82
2024/02/23 01:47:00;;;;;;;0.30;0.13;;;7.00;99.90;;;;;;5015670;28;20483;-82
2024/02/23 01:49:29;;;;;;;0.43;0.20;;;7.00;99.90;;;;;;5015413;28;20042;-82
2024/02/23 01:51:57;;;;;;;0.30;0.10;;;7.10;99.90;;;;;;5017715;28;20079;-82
2024/02/23 01:54:23;;;;;;;0.30;0.10;;;7.10;99.90;;;;;;5015647;28;20503;-82
2024/02/23 01:56:49;;;;;;;2.95;0.22;;;6.90;99.90;;;;;;5017280;28;20723;-82
2024/02/23 01:59:15;;;;;;;0.35;0.10;;;7.00;99.90;;;;;;5016980;28;20033;-82
2024/02/23 02:01:43;;;;;;;2.38;0.43;;;7.10;99.90;;;;;;5016301;28;20364;-83
2024/02/23 02:04:09;;;;;;;0.43;0.20;;;7.10;99.90;;;;;;5016762;28;20159;-82
2024/02/23 02:06:35;;;;;;;0.22;0.10;;;7.30;99.90;;;;;;5018279;28;20518;-82
2024/02/23 02:09:01;;;;;;;0.63;0.20;;;7.20;99.90;;;;;;5015373;28;20053;-82
2024/02/23 02:11:27;;;;;;;1.55;0.20;;;7.20;99.90;;;;;;5015738;28;20041;-82
2024/02/23 02:13:53;;;;;;;0.32;0.10;;;7.30;99.90;;;;;;5017769;28;20037;-82
2024/02/23 02:16:18;;;;;;;0.20;0.17;;;7.30;99.90;;;;;;5016070;28;20037;-82
2024/02/23 02:18:45;;;;;;;0.82;0.20;;;7.00;99.90;;;;;;5014660;28;20076;-82
2024/02/23 02:21:11;;;;;;;0.73;0.22;;;6.90;99.90;;;;;;5016712;28;20065;-82
2024/02/23 02:23:37;;;;;;;0.35;0.10;;;7.00;99.90;;;;;;5015967;28;20801;-82
2024/02/23 02:26:03;;;;;;;0.20;0.10;;;7.00;99.90;;;;;;5014119;28;20357;-82
2024/02/23 02:28:29;;;;;;;1.63;0.20;;;7.00;99.90;;;;;;5016188;28;20050;-82
2024/02/23 02:30:55;;;;;;;0.28;0.10;;;7.10;99.90;;;;;;5015438;28;21548;-82
2024/02/23 02:33:22;;;;;;;0.47;0.10;;;7.20;99.90;;;;;;5015264;28;20812;-82
2024/02/23 02:35:49;;;;;;;2.25;0.10;;;7.20;99.90;;;;;;5016585;28;20033;-82
2024/02/23 02:38:15;;;;;;;0.03;0.03;;;7.40;99.90;;;;;;5017251;28;20039;-82
2024/02/23 02:40:41;;;;;;;0.20;0.05;;;7.30;99.90;;;;;;5015538;28;20041;-82
2024/02/23 02:43:07;;;;;;;0.08;0.08;;;7.40;99.90;;;;;;5015775;28;20383;-83
2024/02/23 02:45:32;;;;;;;1.38;0.32;;;7.30;99.90;;;;;;5014868;28;20083;-82
2024/02/23 02:48:00;;;;;;;0.22;0.00;;;7.10;99.90;;;;;;5015664;28;20041;-82
2024/02/23 02:50:26;;;;;;;0.00;0.00;;;7.10;99.90;;;;;;5015839;28;20522;-81
2024/02/23 02:52:52;;;;;;;0.10;0.03;;;7.10;99.90;;;;;;5015627;28;20064;-80
2024/02/23 02:55:18;;;;;;;0.32;0.10;;;7.10;99.90;;;;;;5015227;28;20092;-80
2024/02/23 02:57:44;;;;;;;0.17;0.05;;;7.20;99.90;;;;;;5016440;28;20131;-81
2024/02/23 03:00:11;;;;;;;0.05;0.05;;;7.30;99.90;;;;;;5016891;28;20028;-81
2024/02/23 03:02:37;;;;;;;0.00;0.00;;;7.40;99.90;;;;;;5016126;28;20061;-81
2024/02/23 03:05:03;;;;;;;0.00;0.00;;;7.30;99.90;;;;;;5015734;28;20475;-81
2024/02/23 03:07:28;;;;;;;0.10;0.00;;;7.10;99.90;;;;;;5014416;28;20487;-81
2024/02/23 03:09:54;;;;;;;0.10;0.10;;;6.90;99.90;;;;;;5014772;28;20415;-81
2024/02/23 03:12:20;;;;;;;0.25;0.10;;;6.90;99.90;;;;;;5014558;28;20045;-81
2024/02/23 03:14:46;;;;;;;0.00;0.00;;;7.00;99.90;;;;;;5014550;28;20041;-81
2024/02/23 03:17:12;;;;;;;0.38;0.08;;;6.90;99.90;;;;;;5016509;28;20090;-81
2024/02/23 03:19:38;;;;;;;0.30;0.10;;;7.00;99.90;;;;;;5015191;28;20387;-81
2024/02/23 03:22:04;;;;;;;0.10;0.03;;;7.00;99.90;;;;;;5015361;28;20022;-81
2024/02/23 03:24:30;;;;;;;0.30;0.13;;;7.00;99.90;;;;;;5016419;28;20146;-81
2024/02/23 03:26:56;;;;;;;0.00;0.00;;;7.00;99.90;;;;;;5014556;28;20029;-81
2024/02/23 03:29:24;;;;;;;0.20;0.10;;;7.10;99.90;;;;;;5014913;28;20411;-81
2024/02/23 03:31:50;;;;;;;0.00;0.00;;;7.20;99.90;;;;;;5015247;28;20037;-81
2024/02/23 03:34:17;;;;;;;1.05;0.10;;;7.40;99.90;;;;;;5015192;28;20090;-81
2024/02/23 03:36:42;;;;;;;0.40;0.10;;;7.50;99.90;;;;;;5012362;28;20034;-81
2024/02/23 03:39:08;;;;;;;0.88;0.03;;;7.50;99.90;;;;;;5015562;28;20041;-81
2024/02/23 03:41:34;;;;;;;0.55;0.08;;;7.30;99.90;;;;;;5014425;28;20034;-81
2024/02/23 03:43:59;;;;;;;1.45;0.10;;;7.10;99.90;;;;;;5015027;28;20040;-81
2024/02/23 03:46:25;;;;;;;0.25;0.10;;;7.20;99.90;;;;;;5015307;28;20061;-81
2024/02/23 03:48:51;;;;;;;0.75;0.20;;;7.40;99.90;;;;;;5015580;28;20051;-81
2024/02/23 03:51:17;;;;;;;0.45;0.10;;;7.40;99.90;;;;;;5014197;28;20566;-81
2024/02/23 03:53:43;;;;;;;1.85;0.30;;;7.20;99.90;;;;;;5015961;28;20451;-81
2024/02/23 03:56:09;;;;;;;1.42;0.30;;;7.30;99.90;;;;;;5014268;28;20951;-82
2024/02/23 03:58:35;;;;;;;0.40;0.10;;;7.40;99.90;;;;;;5012685;28;20068;-82
2024/02/23 04:01:01;;;;;;;0.10;0.00;;;7.40;99.90;;;;;;5015547;28;20086;-82
2024/02/23 04:03:26;;;;;;;3.90;0.50;;;7.40;99.90;;;;;;5010525;28;20098;-81
2024/02/23 04:05:52;;;;;;;0.32;0.20;;;7.40;99.90;;;;;;5011919;28;20404;-82
2024/02/23 04:08:17;;;;;;;0.20;0.03;;;7.40;99.90;;;;;;5009861;28;20456;-81
2024/02/23 04:10:43;;;;;;;0.20;0.10;;;7.20;99.90;;;;;;5009624;28;20029;-81
2024/02/23 04:13:10;;;;;;;0.30;0.10;;;7.10;99.90;;;;;;5009730;28;20041;-81
2024/02/23 04:15:36;;;;;;;0.10;0.10;;;7.10;99.90;;;;;;5009093;28;20137;-82
2024/02/23 04:18:01;;;;;;;0.13;0.08;;;7.10;99.90;;;;;;5007363;28;20029;-81
2024/02/23 04:20:27;;;;;;;0.30;0.15;;;7.20;99.90;;;;;;5006296;28;20532;-82
2024/02/23 04:22:52;;;;;;;0.32;0.10;;;7.30;99.90;;;;;;5005738;28;20033;-81
2024/02/23 04:25:18;;;;;;;1.98;0.10;;;7.10;99.90;;;;;;5010215;28;20037;-81
2024/02/23 04:27:44;;;;;;;0.03;0.03;;;7.30;99.90;;;;;;5009498;28;20417;-80
2024/02/23 04:30:10;;;;;;;0.73;0.38;;;7.50;99.90;;;;;;5010548;28;20045;-81
2024/02/23 04:32:36;;;;;;;1.20;0.40;;;7.30;99.90;;;;;;5010637;28;20565;-81
2024/02/23 04:35:02;;;;;;;1.80;0.70;;;7.20;99.90;;;;;;5009164;28;20033;-82
2024/02/23 04:37:27;;;;;;;1.88;0.77;;;7.10;99.90;;;;;;5009098;28;20366;-81
2024/02/23 04:39:53;;;;;;;1.42;0.68;;;7.00;99.90;;;;;;5008997;28;21972;-82
2024/02/23 04:42:19;;;;;;;1.65;0.70;;;7.00;99.90;;;;;;5010662;28;20044;-82
2024/02/23 04:44:44;;;;;;;0.75;0.40;;;7.00;99.90;;;;;;5009623;28;20036;-81
2024/02/23 04:47:10;;;;;;;2.58;0.70;;;7.00;99.90;;;;;;5009543;28;20703;-80
2024/02/23 04:49:36;;;;;;;0.82;0.40;;;6.90;99.90;;;;;;5004193;28;20029;-81
2024/02/23 04:52:01;;;;;;;1.10;0.57;;;6.90;99.90;;;;;;5006895;28;20120;-82
2024/02/23 04:54:27;;;;;;;0.65;0.40;;;6.90;99.90;;;;;;5007163;28;20034;-81
2024/02/23 04:56:53;;;;;;;1.25;0.40;;;6.90;99.90;;;;;;5009923;28;20132;-81
2024/02/23 04:59:18;;;;;;;0.68;0.45;;;6.90;99.90;;;;;;5008954;28;20476;-81
2024/02/23 05:01:44;;;;;;;4.28;0.60;;;6.90;99.90;;;;;;5004061;28;20428;-81
2024/02/23 05:04:10;;;;;;;1.83;0.70;;;7.00;99.90;;;;;;5006227;28;20037;-81
2024/02/23 05:06:35;;;;;;;2.60;0.90;;;6.80;99.90;;;;;;5009063;28;20038;-81
2024/02/23 05:09:02;;;;;;;1.95;1.00;;;6.60;99.90;;;;;;5006547;28;20111;-82
2024/02/23 05:11:28;;;;;;;1.80;0.93;;;6.70;99.90;;;;;;5009779;28;21679;-82
2024/02/23 05:13:53;;;;;;;3.08;1.27;;;6.80;99.90;;;;;;5017681;28;20034;-82
2024/02/23 05:16:19;;;;;;;1.73;0.90;;;6.90;99.90;;;;;;5015979;28;20560;-82
2024/02/23 05:18:46;;;;;;;3.30;0.90;;;6.90;99.90;;;;;;5016825;28;20679;-81
2024/02/23 05:21:14;;;;;;;1.70;0.82;;;6.90;99.90;;;;;;5016143;28;20037;-80
2024/02/23 05:23:40;;;;;;;2.03;0.93;;;6.90;99.90;;;;;;5017520;28;20473;-82
2024/02/23 05:26:06;;;;;;;2.10;1.00;;;6.90;99.90;;;;;;5015592;28;20037;-82
2024/02/23 05:28:31;;;;;;;1.65;0.88;;;7.00;99.90;;;;;;5015795;28;20727;-82
2024/02/23 05:30:57;;;;;;;3.50;1.40;;;6.90;99.90;;;;;;5016665;28;20029;-82
2024/02/23 05:33:24;;;;;;;3.05;1.30;;;6.80;99.90;;;;;;5013291;28;20124;-82
2024/02/23 05:35:49;;;;;;;1.90;0.82;;;6.80;99.90;;;;;;5011355;28;20096;-79
2024/02/23 05:38:16;;;;;;;0.88;0.50;;;6.70;99.90;;;;;;5013005;28;20038;-82
2024/02/23 05:40:42;;;;;;;0.68;0.30;;;6.90;99.90;;;;;;5015857;28;20049;-82
2024/02/23 05:43:08;;;;;;;3.17;0.52;;;6.90;99.90;;;;;;5016579;28;21336;-82
2024/02/23 05:45:34;;;;;;;2.05;0.47;;;7.10;99.90;;;;;;5016982;28;20044;-80
2024/02/23 05:47:59;;;;;;;4.20;3.38;;;7.00;99.90;;;;;;5014755;28;20049;-80
2024/02/23 05:50:25;;;;;;;5.47;4.88;;;7.20;99.90;;;;;;5016133;28;20206;-82
2024/02/23 05:52:52;;;;;;;3.45;2.25;;;7.10;99.90;;;;;;5015359;28;20045;-82
2024/02/23 05:55:18;;;;;;;3.38;1.88;;;7.00;99.90;;;;;;5016368;28;20041;-80
2024/02/23 05:57:44;;;;;;;2.97;1.90;;;7.00;99.90;;;;;;5014543;28;20814;-78
2024/02/23 06:00:10;;;;;;;4.57;2.28;;;7.00;99.90;;;;;;5012453;28;20088;-80
2024/02/23 06:02:36;;;;;;;227.38;101.00;;;6.90;99.90;;;;;;5011893;28;20030;-81
2024/02/23 06:05:01;;;;;;;39.75;17.92;;;6.90;99.90;;;;;;5012367;28;20068;-81
2024/02/23 06:07:29;;;;;;;12.18;5.57;;;6.90;99.90;;;;;;5011471;28;21225;-81
2024/02/23 06:09:58;;;;;;;6.43;3.28;;;6.70;99.90;;;;;;5011191;28;20069;-81
2024/02/23 06:12:27;;;;;;;6.22;2.35;;;6.80;99.90;;;;;;5013793;28;20544;-81
2024/02/23 06:14:53;;;;;;;2.53;1.45;;;6.70;99.90;;;;;;5012678;28;20041;-81
2024/02/23 06:17:18;;;;;;;2.53;1.13;;;6.70;99.90;;;;;;5012017;28;20051;-81
2024/02/23 06:19:44;;;;;;;6.80;5.88;;;6.80;99.90;;;;;;5022108;28;20185;-81
2024/02/23 06:22:10;;;;;;;7.90;6.68;;;6.90;99.90;;;;;;5014572;28;20171;-81
2024/02/23 06:24:36;;;;;;;6.97;6.07;;;7.00;99.90;;;;;;5008609;28;20030;-82
2024/02/23 06:27:03;;;;;;;8.40;7.53;;;7.00;99.90;;;;;;5010213;28;20064;-82
2024/02/23 06:29:29;;;;;;;5.93;5.05;;;7.00;99.90;;;;;;5011028;28;20037;-81
2024/02/23 06:31:55;;;;;;;4.57;3.00;;;6.90;99.90;;;;;;5018997;28;20029;-81
2024/02/23 06:34:21;;;;;;;4.05;2.72;;;6.90;99.90;;;;;;5017197;28;20107;-82
2024/02/23 06:36:47;;;;;;;4.00;2.03;;;6.80;99.90;;;;;;5009112;28;20034;-82
2024/02/23 06:39:13;;;;;;;3.33;1.85;;;6.60;99.90;;;;;;5010370;28;20032;-82
2024/02/23 06:41:39;;;;;;;2.65;1.20;;;6.60;99.90;;;;;;5011411;28;20041;-82
2024/02/23 06:44:05;;;;;;;4.95;1.83;;;6.70;99.90;;;;;;5011566;28;20553;-83
2024/02/23 06:46:30;;;;;;;2.10;1.15;;;6.70;99.90;;;;;;5009644;28;20040;-82
2024/02/23 06:48:56;;;;;;;2.22;1.20;;;6.70;99.90;;;;;;5011698;28;20045;-83
2024/02/23 06:51:22;;;;;;;1.65;0.90;;;6.70;99.90;;;;;;5010205;28;20037;-82
2024/02/23 06:53:48;;;;;;;2.53;1.13;;;6.80;99.90;;;;;;5010784;28;20034;-82
2024/02/23 06:56:14;;;;;;;5.03;1.08;;;6.90;99.90;;;;;;5014053;28;20469;-82
2024/02/23 06:58:40;;;;;;;2.25;1.10;;;6.90;99.90;;;;;;5010521;28;20032;-82
2024/02/23 07:01:06;;;;;;;2.28;1.10;;;6.90;99.90;;;;;;5010895;28;20034;-82
2024/02/23 07:03:33;;;;;;;2.03;1.02;;;6.90;99.90;;;;;;5011963;28;20120;-83
2024/02/23 07:05:59;;;;;;;2.80;1.20;;;6.80;99.90;;;;;;5009620;28;20477;-82
2024/02/23 07:08:24;;;;;;;3.42;1.52;;;6.80;99.90;;;;;;5007671;28;21110;-82
2024/02/23 07:10:50;;;;;;;4.70;1.50;;;6.70;99.90;;;;;;5011354;28;20639;-80
2024/02/23 07:13:17;;;;;;;4.78;1.70;;;6.80;99.90;;;;;;5009238;28;20480;-82
2024/02/23 07:15:43;;;;;;;2.40;1.40;;;6.90;99.90;;;;;;5009197;28;20569;-82
2024/02/23 07:18:09;;;;;;;3.08;1.60;;;6.90;99.90;;;;;;5011573;28;20044;-79
2024/02/23 07:20:38;;;;;;;4.82;2.03;;;6.90;99.90;;;;;;5010162;28;20609;-81
2024/02/23 07:23:04;;;;;;;4.20;1.92;;;6.90;99.90;;;;;;5008434;28;20132;-80
2024/02/23 07:25:30;;;;;;;4.53;2.10;;;6.90;99.90;;;;;;5011333;28;20033;-80
2024/02/23 07:27:56;;;;;;;8.10;5.30;;;6.80;99.90;;;;;;5009175;28;20033;-80
2024/02/23 07:30:22;;;;;;;15.77;10.30;;;6.60;99.90;;;;;;5007862;28;20656;-81
2024/02/23 07:32:48;;;;;;;9.90;5.65;;;6.60;99.90;;;;;;5010454;28;20121;-80
2024/02/23 07:35:14;;;;;;;8.95;6.15;;;6.60;99.90;;;;;;5009732;28;20100;-83
2024/02/23 07:37:40;;;;;;;7.50;3.95;;;6.70;99.90;;;;;;5004580;28;20041;-82
2024/02/23 07:40:07;;;;;;;5.18;3.22;;;6.80;99.90;;;;;;5010684;28;20757;-81
2024/02/23 07:42:35;;;;;;;5.55;2.63;;;6.80;99.90;;;;;;5009962;28;20037;-80
2024/02/23 07:45:04;;;;;;;3.88;2.05;;;6.70;99.90;;;;;;5009413;28;20046;-80
2024/02/23 07:47:31;;;;;;;4.30;1.52;;;6.80;99.90;;;;;;5011189;28;20096;-81
2024/02/23 07:49:58;;;;;;;1.98;1.20;;;6.90;99.90;;;;;;5010384;28;20831;-81
2024/02/23 07:52:24;;;;;;;3.10;1.10;;;6.90;99.90;;;;;;5000349;28;20075;-81
2024/02/23 07:54:51;;;;;;;3.08;1.40;;;6.70;99.90;;;;;;5008953;28;20116;-80
2024/02/23 07:57:20;;;;;;;3.05;1.17;;;6.60;99.90;;;;;;5007586;28;20034;-80
2024/02/23 07:59:46;;;;;;;2.33;1.08;;;6.80;99.90;;;;;;5006472;28;20033;-80
2024/02/23 08:02:12;;;;;;;2.28;1.33;;;6.70;99.90;;;;;;5007453;28;20045;-80
2024/02/23 08:04:38;;;;;;;2.70;1.25;;;6.70;99.90;;;;;;5007963;28;20044;-80
2024/02/23 08:07:04;;;;;;;2.22;0.85;;;6.70;99.90;;;;;;5007029;28;20503;-80
2024/02/23 08:09:30;;;;;;;1.50;0.88;;;6.70;99.90;;;;;;5008461;28;20053;-79
2024/02/23 08:11:55;;;;;;;2.17;1.10;;;6.60;99.90;;;;;;5007253;28;20029;-80
2024/02/23 08:14:21;;;;;;;1.25;0.70;;;6.60;99.90;;;;;;5008206;28;20064;-78
2024/02/23 08:16:47;;;;;;;1.60;0.95;;;6.60;99.90;;;;;;5007735;28;20042;-79
2024/02/23 08:19:12;;;;;;;1.90;1.20;;;6.60;99.90;;;;;;5008231;28;20038;-79
2024/02/23 08:21:39;;;;;;;2.45;1.27;;;6.50;99.90;;;;;;5009459;28;20045;-79
2024/02/23 08:24:05;;;;;;;3.08;1.63;;;6.40;99.90;;;;;;5008668;28;20044;-79
2024/02/23 08:26:30;;;;;;;4.60;1.70;;;6.50;99.90;;;;;;5007642;28;20030;-80
2024/02/23 08:28:56;;;;;;;4.63;1.90;;;6.50;99.90;;;;;;5007442;28;20752;-80
2024/02/23 08:31:22;;;;;;;3.28;1.52;;;6.30;99.90;;;;;;5007981;28;20036;-80
2024/02/23 08:33:47;;;;;;;3.30;2.00;;;6.30;99.90;;;;;;5007783;28;20579;-80
2024/02/23 08:36:13;;;;;;;3.38;1.83;;;6.10;99.90;;;;;;5007993;28;20040;-79
2024/02/23 08:38:38;;;;;;;3.72;1.77;;;6.30;99.90;;;;;;5008307;28;20379;-80
2024/02/23 08:41:04;;;;;;;2.40;1.50;;;6.40;99.90;;;;;;5007199;28;21358;-80
2024/02/23 08:43:30;;;;;;;1.80;1.20;;;6.20;99.90;;;;;;5008566;28;20056;-80
2024/02/23 08:45:55;;;;;;;2.03;1.13;;;5.90;99.90;;;;;;5009439;28;20081;-80
2024/02/23 08:48:21;;;;;;;2.35;1.05;;;6.00;99.90;;;;;;5007493;28;20100;-80
2024/02/23 08:50:47;;;;;;;1.95;0.88;;;6.00;99.90;;;;;;5008725;28;20132;-80
2024/02/23 08:53:12;;;;;;;3.17;1.23;;;6.20;99.90;;;;;;5007693;28;20767;-80
2024/02/23 08:55:38;;;;;;;3.60;0.88;;;6.20;99.90;;;;;;5007251;28;20040;-80
2024/02/23 08:58:05;;;;;;;2.50;1.10;;;6.10;99.90;;;;;;5009373;28;20124;-80
2024/02/23 09:00:31;;;;;;;2.90;1.48;;;6.00;99.90;;;;;;5006296;28;20057;-80
2024/02/23 09:02:57;;;;;;;3.00;1.50;;;6.00;99.90;;;;;;5008316;28;20044;-83
2024/02/23 09:05:23;;;;;;;2.85;1.50;;;6.10;99.90;;;;;;5009556;28;20037;-81
2024/02/23 09:07:48;;;;;;;1.60;1.10;;;6.10;99.90;;;;;;5008541;28;20157;-80
2024/02/23 09:10:14;;;;;;;4.88;1.55;;;6.20;99.90;;;;;;5006792;28;20095;-80
2024/02/23 09:12:40;;;;;;;2.67;1.50;;;6.30;99.90;;;;;;5008819;28;20049;-80
2024/02/23 09:15:06;;;;;;;5.13;1.77;;;6.30;99.90;;;;;;5005729;28;20052;-80
2024/02/23 09:17:31;;;;;;;2.58;1.35;;;6.30;99.90;;;;;;5007507;28;20064;-80
2024/02/23 09:19:57;;;;;;;12.95;11.75;;;6.20;99.90;;;;;;5006666;28;20495;-79
2024/02/23 09:22:23;;;;;;;7.28;5.63;;;6.10;99.90;;;;;;5003559;28;20037;-80
2024/02/23 09:24:49;;;;;;;6.80;5.55;;;6.30;99.90;;;;;;5006472;28;20045;-80
2024/02/23 09:27:15;;;;;;;5.03;3.30;;;6.30;99.90;;;;;;5006749;28;20983;-80
2024/02/23 09:29:41;;;;;;;5.45;3.15;;;6.10;99.90;;;;;;5005562;28;20116;-79
2024/02/23 09:32:07;;;;;;;3.10;1.88;;;6.10;99.90;;;;;;5006186;28;20384;-79
2024/02/23 09:34:33;;;;;;;3.65;1.77;;;6.00;99.90;;;;;;5008424;28;20037;-79
2024/02/23 09:36:59;;;;;;;2.50;1.50;;;5.90;99.90;;;;;;5006496;28;20037;-79
2024/02/23 09:39:26;;;;;;;2.78;1.35;;;6.00;99.90;;;;;;5004912;28;20041;-79
2024/02/23 09:41:54;;;;;;;3.75;1.45;;;6.10;99.90;;;;;;5008145;28;20045;-80
2024/02/23 09:44:23;;;;;;;3.15;1.55;;;6.00;99.90;;;;;;5007361;28;20136;-80
2024/02/23 09:46:49;;;;;;;2.53;1.30;;;6.10;99.90;;;;;;5005649;28;20041;-80
2024/02/23 09:49:16;;;;;;;4.75;1.30;;;6.10;99.90;;;;;;5007791;28;20450;-80
2024/02/23 09:51:43;;;;;;;1.35;0.82;;;6.00;99.90;;;;;;5006261;28;20029;-79
2024/02/23 09:54:09;;;;;;;1.27;0.60;;;5.80;99.90;;;;;;5008249;28;20041;-80
2024/02/23 09:56:37;;;;;;;3.05;0.85;;;5.80;99.90;;;;;;5003542;28;20044;-80
2024/02/23 09:59:03;;;;;;;2.72;1.23;;;5.70;99.90;;;;;;5010628;28;20065;-80
2024/02/23 10:01:36;;;;;;;2.20;1.00;;;5.70;99.90;;;;;;5009315;28;20037;-80
2024/02/23 10:04:06;;;;;;;2.28;1.08;;;5.70;99.90;;;;;;5008771;28;20130;-80
2024/02/23 10:06:32;;;;;;;2.45;0.90;;;5.80;99.90;;;;;;5008022;28;20107;-80
2024/02/23 10:08:58;;;;;;;1.90;0.82;;;5.70;99.90;;;;;;5010568;28;20546;-79
2024/02/23 10:11:25;;;;;;;1.75;0.90;;;5.70;99.90;;;;;;5007125;28;20041;-79
2024/02/23 10:13:52;;;;;;;1.50;0.73;;;5.80;99.90;;;;;;5008314;28;20057;-79
2024/02/23 10:16:21;;;;;;;1.98;0.80;;;5.80;99.90;;;;;;5011708;28;20476;-79
2024/02/23 10:18:48;;;;;;;2.40;0.90;;;5.70;99.90;;;;;;5009819;28;20502;-79
2024/02/23 10:21:15;;;;;;;2.45;1.00;;;5.70;99.90;;;;;;5005640;28;21082;-79
2024/02/23 10:23:41;;;;;;;2.05;1.00;;;5.80;99.90;;;;;;5010206;28;20062;-80
2024/02/23 10:26:08;;;;;;;1.65;0.90;;;5.80;99.90;;;;;;5010542;28;20563;-80
2024/02/23 10:28:35;;;;;;;2.55;1.20;;;6.00;99.90;;;;;;5008436;28;20136;-80
2024/02/23 10:31:02;;;;;;;4.07;1.20;;;5.90;99.90;;;;;;5004631;28;20033;-80
2024/02/23 10:33:28;;;;;;;1.83;0.77;;;5.90;99.90;;;;;;5008088;28;20612;-80
2024/02/23 10:35:59;;;;;;;1.58;0.90;;;5.90;99.90;;;;;;5008504;28;20034;-79
2024/02/23 10:38:26;;;;;;;2.42;1.10;;;5.80;99.90;;;;;;5009625;28;20144;-78
2024/02/23 10:40:56;;;;;;;4.43;1.48;;;5.90;99.90;;;;;;5011687;28;20117;-80
2024/02/23 10:43:30;;;;;;;3.22;1.10;;;5.90;99.90;;;;;;5008616;28;20045;-80
2024/02/23 10:45:59;;;;;;;2.00;0.93;;;5.90;99.90;;;;;;5007761;28;20511;-79
2024/02/23 10:48:27;;;;;;;2.35;1.05;;;5.90;99.90;;;;;;5011021;28;20037;-79
2024/02/23 10:50:53;;;;;;;2.55;1.15;;;5.70;99.90;;;;;;5015380;28;20034;-82
2024/02/23 10:53:19;;;;;;;1.55;0.80;;;5.80;99.90;;;;;;5032097;28;20824;-79
2024/02/23 10:55:46;;;;;;;0.95;0.57;;;5.70;99.90;;;;;;5025741;28;20042;-82
2024/02/23 10:58:13;;;;;;;3.10;1.15;;;5.80;99.90;;;;;;5032586;28;20040;-79
2024/02/23 11:00:39;;;;;;;2.50;1.05;;;5.80;99.90;;;;;;5031808;28;20397;-80
2024/02/23 11:03:06;;;;;;;3.42;1.83;;;5.80;99.90;;;;;;5031397;28;20083;-80
2024/02/23 11:05:33;;;;;;;2.05;0.95;;;5.70;99.90;;;;;;5031336;28;20041;-80
2024/02/23 11:07:59;;;;;;;2.10;0.90;;;5.80;99.90;;;;;;5013600;28;20530;-81
2024/02/23 11:10:28;;;;;;;1.60;0.90;;;5.80;99.90;;;;;;5017028;28;20404;-79
2024/02/23 11:13:00;;;;;;;2.28;1.05;;;5.70;99.90;;;;;;5013424;28;20125;-80
2024/02/23 11:15:33;;;;;;;2.65;1.17;;;5.60;99.90;;;;;;5012132;28;20056;-80
2024/02/23 11:18:00;;;;;;;1.88;1.00;;;5.40;99.90;;;;;;5014240;28;20036;-80
2024/02/23 11:20:34;;;;;;;2.10;0.93;;;5.30;99.90;;;;;;5013124;28;20041;-79
2024/02/23 11:23:00;;;;;;;1.85;1.00;;;5.30;99.90;;;;;;5012754;28;20048;-79
2024/02/23 11:25:29;;;;;;;3.08;0.85;;;5.50;99.90;;;;;;5013915;28;20029;-79
2024/02/23 11:27:55;;;;;;;1.50;0.60;;;5.50;99.90;;;;;;5016333;28;20041;-79
2024/02/23 11:30:20;;;;;;;0.98;0.50;;;5.40;99.90;;;;;;5010387;28;20048;-79
2024/02/23 11:32:48;;;;;;;2.80;0.82;;;5.40;99.90;;;;;;5010849;28;20044;-79
2024/02/23 11:35:15;;;;;;;0.82;0.60;;;5.40;99.90;;;;;;5012410;28;20119;-81
2024/02/23 11:38:02;;;;;;;1.70;0.90;;;5.40;99.90;;;;;;5011924;28;20035;-82
2024/02/23 11:40:28;;;;;;;2.20;1.00;;;5.40;99.90;;;;;;5013105;28;20041;-80
2024/02/23 11:42:57;;;;;;;2.47;1.10;;;5.30;99.90;;;;;;5011854;28;20243;-81
2024/02/23 11:45:25;;;;;;;2.60;1.23;;;5.30;99.90;;;;;;5009558;28;20610;-81
2024/02/23 11:47:50;;;;;;;2.40;1.30;;;5.30;99.90;;;;;;5011710;28;20132;-81
2024/02/23 11:50:19;;;;;;;2.88;1.60;;;5.40;99.90;;;;;;5008878;28;20034;-82
2024/02/23 11:52:45;;;;;;;1.90;1.17;;;5.40;99.90;;;;;;5010556;28;20120;-81
2024/02/23 11:55:11;;;;;;;2.88;1.50;;;5.40;99.90;;;;;;5012446;28;20033;-82
2024/02/23 11:57:38;;;;;;;2.47;1.15;;;5.50;99.90;;;;;;5011356;28;20597;-81
2024/02/23 12:00:06;;;;;;;3.05;1.50;;;5.40;99.90;;;;;;5010458;28;21713;-81
2024/02/23 12:02:32;;;;;;;2.75;1.25;;;5.30;99.90;;;;;;5011232;28;20037;-80
2024/02/23 12:04:58;;;;;;;1.95;1.13;;;5.20;99.90;;;;;;5010898;28;20038;-81
2024/02/23 12:07:26;;;;;;;2.25;1.05;;;5.10;99.90;;;;;;5011298;28;20048;-82
2024/02/23 12:09:52;;;;;;;3.63;1.17;;;5.20;99.90;;;;;;5011292;28;20408;-81
2024/02/23 12:12:18;;;;;;;3.20;1.50;;;5.20;99.90;;;;;;5009904;28;20052;-80
2024/02/23 12:14:44;;;;;;;7.20;2.05;;;5.20;99.90;;;;;;5011769;28;20037;-82
2024/02/23 12:17:10;;;;;;;2.42;1.40;;;5.20;99.90;;;;;;5013310;28;20044;-83
2024/02/23 12:19:42;;;;;;;2.58;1.55;;;5.30;99.90;;;;;;5009291;28;20148;-80
2024/02/23 12:22:09;;;;;;;3.83;1.70;;;5.30;99.90;;;;;;5006954;28;20087;-82
2024/02/23 12:24:35;;;;;;;3.28;1.70;;;5.30;99.90;;;;;;5008181;28;20579;-83
2024/02/23 12:27:01;;;;;;;3.15;1.60;;;5.40;99.90;;;;;;5008338;28;20127;-83
2024/02/23 12:29:29;;;;;;;3.55;1.85;;;5.40;99.90;;;;;;5010297;28;20045;-82
2024/02/23 12:32:06;;;;;;;3.47;2.20;;;5.40;99.90;;;;;;5009461;28;20766;-83
2024/02/23 12:34:32;;;;;;;6.22;5.25;;;5.20;99.90;;;;;;5010502;28;20117;-82
2024/02/23 12:36:57;;;;;;;4.45;2.88;;;5.40;99.90;;;;;;5008592;28;20034;-82
2024/02/23 12:39:23;;;;;;;3.70;2.17;;;5.40;99.90;;;;;;5010090;28;20064;-80
2024/02/23 12:41:50;;;;;;;3.50;2.10;;;5.20;99.90;;;;;;5010623;28;20152;-80
2024/02/23 12:44:16;;;;;;;3.60;2.10;;;5.10;99.90;;;;;;5010843;28;20037;-80
2024/02/23 12:46:41;;;;;;;3.03;1.90;;;5.00;99.90;;;;;;5008909;28;20041;-80
2024/02/23 12:49:07;;;;;;;2.85;1.70;;;5.10;99.90;;;;;;5010821;28;20045;-78
2024/02/23 12:51:33;;;;;;;3.78;2.03;;;5.20;99.90;;;;;;5009068;28;20047;-77
2024/02/23 12:54:00;;;;;;;3.55;2.15;;;5.10;99.90;;;;;;5009429;28;20092;-78